Airfield :
LOGIN :

Register | Disclaimer

   EN    FR    IT 

 










Legend :    VFR   Marginal VFR   IFR   Intensive IFR   Very Intensive IFR
Visi :
Ceiling :
>= 8 km
>= 3000ft
5 to 8 km
1000 to 3000 ft
1500m to 5 km
500 to 1000 ft
800 to 1500m
200 to 500 ft
< 800m
< 200 ft
Symbols :   Thunderstorms  Fog  Heavy snow  Heavy precipitations  Wind > 20 kt
SIGMETs :     Misc.  Thunderstorms  Icing  Turbulence  Mountain Waves  Volcanic Ashes






- Airport Elevation : 1213 ft
- IATA code : SCQ


LEST - Santiago de Compostela

CURRENT METAR :
  • 240430Z 22006KT 170V270 2500 -RADZ BKN001 OVC008 11/11 Q1015 TEMPO SCT001

EXPIRED METARs :
  • 240417Z 21006KT 170V250 3000 -RADZ BKN003 OVC008 11/10 Q1014 NOSIG
  • 240400Z 21004KT 170V250 3000 -RADZ BKN005 OVC009 10/10 Q1015 NOSIG
  • 240330Z 21006KT 160V260 6000 -RADZ BKN007 OVC013 10/10 Q1015 NOSIG
  • 240310Z 21004KT 140V280 8000 BKN007 OVC012 10/10 Q1014 NOSIG
  • 240300Z 21005KT 170V260 5000 -DZRA BKN011 OVC017 10/10 Q1015 NOSIG
  • 240230Z 20003KT 160V250 5000 -DZRA BKN012 OVC017 10/10 Q1015 NOSIG
  • 240200Z 20005KT 170V230 5000 -DZ SCT011 BKN018 OVC032 10/09 Q1015 NOSIG

TAF TAF LEST
Valid from the 24 at 00:00 until the 25 at 00:00 UTC


232300Z 2400/2424 22008KT 9999 SCT005 BKN030 TX16/2415Z TN08/2406Z
TEMPO 2400/2415 3000 RA BKN010
PROB40
TEMPO 2403/2412 0800 BCFG BKN002
PROB40
TEMPO 2411/2416 21015G25KT



MET'MAP, your aeronautical weather chart ! - Copyright ORBIFLY December 2007 - Disclaimer

ORBIFLY MET'MAP TEAM :

Programming & Development : Alexandra Zaïnal
Concept & Development : Baudouin d'Aumeries
Co-Development & Prog : Marc-Olivier Méhu
Technical & hardware support : Manuel Goepfert

Contact : metmap@orbifly.com




SOURCES & CREDITS :

   NOAA